sensor_id;sensor_type;location;lat;lon;timestamp;pressure;altitude;pressure_sealevel;temperature;humidity
10988;BME280;5547;42.672;23.230;2023-06-22T00:01:06;93755.16;;;14.59;100.00
10988;BME280;5547;42.672;23.230;2023-06-22T00:04:07;93637.53;;;13.70;100.00
10988;BME280;5547;42.672;23.230;2023-06-22T00:07:08;93757.84;;;14.59;100.00
10988;BME280;5547;42.672;23.230;2023-06-22T00:10:09;93754.13;;;14.53;100.00
10988;BME280;5547;42.672;23.230;2023-06-22T00:13:10;93749.38;;;14.44;100.00
10988;BME280;5547;42.672;23.230;2023-06-22T00:16:10;93751.72;;;14.42;100.00
10988;BME280;5547;42.672;23.230;2023-06-22T00:19:11;93739.59;;;14.38;100.00
10988;BME280;5547;42.672;23.230;2023-06-22T00:22:12;93662.78;;;13.85;100.00
10988;BME280;5547;42.672;23.230;2023-06-22T00:25:12;93709.81;;;14.19;100.00
10988;BME280;5547;42.672;23.230;2023-06-22T00:28:13;93685.72;;;14.03;100.00
10988;BME280;5547;42.672;23.230;2023-06-22T00:31:13;93691.41;;;14.05;100.00
10988;BME280;5547;42.672;23.230;2023-06-22T00:34:14;93731.38;;;14.28;100.00
10988;BME280;5547;42.672;23.230;2023-06-22T00:37:16;93726.53;;;14.23;100.00
10988;BME280;5547;42.672;23.230;2023-06-22T00:40:16;93666.47;;;13.75;100.00
10988;BME280;5547;42.672;23.230;2023-06-22T00:43:21;93666.19;;;13.70;100.00
10988;BME280;5547;42.672;23.230;2023-06-22T00:46:22;93729.78;;;14.15;100.00
10988;BME280;5547;42.672;23.230;2023-06-22T00:49:23;93725.69;;;14.10;100.00
10988;BME280;5547;42.672;23.230;2023-06-22T00:52:24;93662.78;;;13.69;100.00
10988;BME280;5547;42.672;23.230;2023-06-22T00:55:29;93725.34;;;14.08;100.00
10988;BME280;5547;42.672;23.230;2023-06-22T00:58:29;93697.81;;;13.91;100.00
10988;BME280;5547;42.672;23.230;2023-06-22T01:01:30;93705.50;;;13.89;100.00
10988;BME280;5547;42.672;23.230;2023-06-22T01:04:35;93705.38;;;13.76;100.00
10988;BME280;5547;42.672;23.230;2023-06-22T01:07:42;93737.34;;;14.00;100.00
10988;BME280;5547;42.672;23.230;2023-06-22T01:10:49;93712.91;;;13.81;100.00
10988;BME280;5547;42.672;23.230;2023-06-22T01:13:57;93736.53;;;14.03;100.00
10988;BME280;5547;42.672;23.230;2023-06-22T01:17:00;93699.84;;;13.67;100.00
10988;BME280;5547;42.672;23.230;2023-06-22T01:20:02;93736.69;;;13.96;100.00
10988;BME280;5547;42.672;23.230;2023-06-22T01:29:20;93634.03;;;13.17;100.00
10988;BME280;5547;42.672;23.230;2023-06-22T01:32:21;93687.78;;;13.42;100.00
10988;BME280;5547;42.672;23.230;2023-06-22T01:35:22;93744.34;;;13.77;100.00
10988;BME280;5547;42.672;23.230;2023-06-22T01:38:24;93742.56;;;13.71;100.00
10988;BME280;5547;42.672;23.230;2023-06-22T01:41:26;93745.56;;;13.73;100.00
10988;BME280;5547;42.672;23.230;2023-06-22T01:44:27;93745.78;;;13.62;100.00
10988;BME280;5547;42.672;23.230;2023-06-22T01:47:28;93719.50;;;13.40;100.00
10988;BME280;5547;42.672;23.230;2023-06-22T01:50:30;93678.63;;;13.20;100.00
10988;BME280;5547;42.672;23.230;2023-06-22T01:53:30;93754.47;;;13.66;100.00
10988;BME280;5547;42.672;23.230;2023-06-22T01:56:30;93752.16;;;13.68;100.00
10988;BME280;5547;42.672;23.230;2023-06-22T01:59:36;93758.81;;;13.60;100.00
10988;BME280;5547;42.672;23.230;2023-06-22T02:02:48;93717.47;;;13.24;100.00
10988;BME280;5547;42.672;23.230;2023-06-22T02:05:55;93779.91;;;13.54;100.00
10988;BME280;5547;42.672;23.230;2023-06-22T02:08:59;93774.72;;;13.47;100.00
10988;BME280;5547;42.672;23.230;2023-06-22T02:12:02;93772.16;;;13.60;100.00
10988;BME280;5547;42.672;23.230;2023-06-22T02:15:04;93727.84;;;13.42;100.00
10988;BME280;5547;42.672;23.230;2023-06-22T02:18:05;93760.44;;;13.54;100.00
10988;BME280;5547;42.672;23.230;2023-06-22T02:21:06;93735.09;;;13.42;100.00
10988;BME280;5547;42.672;23.230;2023-06-22T02:24:07;93753.78;;;13.62;100.00
10988;BME280;5547;42.672;23.230;2023-06-22T02:27:07;93765.38;;;13.55;100.00
10988;BME280;5547;42.672;23.230;2023-06-22T02:30:08;93743.09;;;13.42;100.00
10988;BME280;5547;42.672;23.230;2023-06-22T02:33:11;93762.44;;;13.50;100.00
10988;BME280;5547;42.672;23.230;2023-06-22T02:36:12;93746.56;;;13.42;100.00
10988;BME280;5547;42.672;23.230;2023-06-22T02:39:13;93756.41;;;13.45;100.00
10988;BME280;5547;42.672;23.230;2023-06-22T02:42:13;93753.03;;;13.41;100.00
10988;BME280;5547;42.672;23.230;2023-06-22T02:45:14;93751.19;;;13.38;100.00
10988;BME280;5547;42.672;23.230;2023-06-22T02:48:14;93692.31;;;13.02;100.00
10988;BME280;5547;42.672;23.230;2023-06-22T02:51:15;93737.50;;;13.36;100.00
10988;BME280;5547;42.672;23.230;2023-06-22T02:54:15;93738.25;;;13.37;100.00
10988;BME280;5547;42.672;23.230;2023-06-22T02:57:16;93747.91;;;13.51;100.00
10988;BME280;5547;42.672;23.230;2023-06-22T03:00:17;93732.00;;;13.43;100.00
10988;BME280;5547;42.672;23.230;2023-06-22T03:03:17;93738.66;;;13.55;100.00
10988;BME280;5547;42.672;23.230;2023-06-22T03:06:18;93735.09;;;13.62;100.00
10988;BME280;5547;42.672;23.230;2023-06-22T03:09:23;93767.56;;;13.80;100.00
10988;BME280;5547;42.672;23.230;2023-06-22T03:12:24;93771.56;;;13.88;100.00
10988;BME280;5547;42.672;23.230;2023-06-22T03:15:24;93759.38;;;13.87;100.00
10988;BME280;5547;42.672;23.230;2023-06-22T03:18:25;93777.19;;;14.14;100.00
10988;BME280;5547;42.672;23.230;2023-06-22T03:21:28;93772.50;;;14.18;100.00
10988;BME280;5547;42.672;23.230;2023-06-22T03:24:28;93779.22;;;14.43;100.00
10988;BME280;5547;42.672;23.230;2023-06-22T03:27:30;93781.19;;;14.59;100.00
10988;BME280;5547;42.672;23.230;2023-06-22T03:30:30;93770.13;;;14.57;100.00
10988;BME280;5547;42.672;23.230;2023-06-22T03:33:30;93751.06;;;14.55;100.00
10988;BME280;5547;42.672;23.230;2023-06-22T03:36:31;93798.88;;;15.02;100.00
10988;BME280;5547;42.672;23.230;2023-06-22T03:39:31;93807.84;;;15.11;100.00
10988;BME280;5547;42.672;23.230;2023-06-22T03:42:34;93810.25;;;15.22;100.00
10988;BME280;5547;42.672;23.230;2023-06-22T03:45:35;93803.44;;;15.34;100.00
10988;BME280;5547;42.672;23.230;2023-06-22T03:48:36;93812.22;;;15.80;100.00
10988;BME280;5547;42.672;23.230;2023-06-22T03:51:36;93817.38;;;16.29;100.00
10988;BME280;5547;42.672;23.230;2023-06-22T03:54:37;93833.59;;;16.64;100.00
10988;BME280;5547;42.672;23.230;2023-06-22T03:57:37;93802.88;;;16.65;100.00
10988;BME280;5547;42.672;23.230;2023-06-22T04:00:37;93821.13;;;16.70;100.00
10988;BME280;5547;42.672;23.230;2023-06-22T04:03:38;93828.00;;;16.97;100.00
10988;BME280;5547;42.672;23.230;2023-06-22T04:06:39;93813.59;;;16.91;100.00
10988;BME280;5547;42.672;23.230;2023-06-22T04:09:39;93804.03;;;17.02;100.00
10988;BME280;5547;42.672;23.230;2023-06-22T04:12:40;93803.78;;;17.22;100.00
10988;BME280;5547;42.672;23.230;2023-06-22T04:15:40;93789.53;;;17.00;100.00
10988;BME280;5547;42.672;23.230;2023-06-22T04:18:41;93799.50;;;17.12;100.00
10988;BME280;5547;42.672;23.230;2023-06-22T04:21:42;93778.66;;;17.38;100.00
10988;BME280;5547;42.672;23.230;2023-06-22T04:24:44;93807.16;;;17.71;100.00
10988;BME280;5547;42.672;23.230;2023-06-22T04:27:45;93795.84;;;18.29;100.00
10988;BME280;5547;42.672;23.230;2023-06-22T04:30:46;93759.91;;;18.23;100.00
10988;BME280;5547;42.672;23.230;2023-06-22T04:33:46;93800.47;;;19.00;100.00
10988;BME280;5547;42.672;23.230;2023-06-22T04:36:47;93780.13;;;18.59;100.00
10988;BME280;5547;42.672;23.230;2023-06-22T04:39:47;93806.75;;;18.57;100.00
10988;BME280;5547;42.672;23.230;2023-06-22T04:42:48;93781.03;;;18.65;100.00
10988;BME280;5547;42.672;23.230;2023-06-22T04:45:53;93803.25;;;18.78;100.00
10988;BME280;5547;42.672;23.230;2023-06-22T04:48:53;93823.31;;;18.77;100.00
10988;BME280;5547;42.672;23.230;2023-06-22T04:51:54;93835.38;;;19.22;100.00
10988;BME280;5547;42.672;23.230;2023-06-22T04:54:55;93838.47;;;19.70;100.00
10988;BME280;5547;42.672;23.230;2023-06-22T04:57:57;93836.97;;;19.79;100.00
10988;BME280;5547;42.672;23.230;2023-06-22T05:01:04;93832.47;;;19.76;100.00
10988;BME280;5547;42.672;23.230;2023-06-22T05:04:05;93816.84;;;19.52;100.00
10988;BME280;5547;42.672;23.230;2023-06-22T05:07:07;93785.25;;;19.34;100.00
10988;BME280;5547;42.672;23.230;2023-06-22T05:10:07;93803.38;;;19.80;100.00
10988;BME280;5547;42.672;23.230;2023-06-22T05:13:08;93813.44;;;19.70;100.00
10988;BME280;5547;42.672;23.230;2023-06-22T05:16:08;93822.25;;;19.98;100.00
10988;BME280;5547;42.672;23.230;2023-06-22T05:19:09;93802.00;;;20.03;100.00
10988;BME280;5547;42.672;23.230;2023-06-22T05:22:09;93799.91;;;20.49;100.00
10988;BME280;5547;42.672;23.230;2023-06-22T05:25:13;93806.19;;;20.65;100.00
10988;BME280;5547;42.672;23.230;2023-06-22T05:28:13;93832.06;;;20.90;100.00
10988;BME280;5547;42.672;23.230;2023-06-22T05:31:14;93835.44;;;20.75;100.00
10988;BME280;5547;42.672;23.230;2023-06-22T05:34:15;93816.50;;;21.33;100.00
10988;BME280;5547;42.672;23.230;2023-06-22T05:37:15;93795.94;;;21.26;100.00
10988;BME280;5547;42.672;23.230;2023-06-22T05:40:16;93845.09;;;21.25;100.00
10988;BME280;5547;42.672;23.230;2023-06-22T05:43:16;93850.75;;;21.36;100.00
10988;BME280;5547;42.672;23.230;2023-06-22T05:46:16;93858.41;;;21.37;100.00
10988;BME280;5547;42.672;23.230;2023-06-22T05:49:17;93865.94;;;21.33;100.00
10988;BME280;5547;42.672;23.230;2023-06-22T05:52:17;93844.50;;;21.54;100.00
10988;BME280;5547;42.672;23.230;2023-06-22T05:55:18;93876.06;;;21.96;100.00
10988;BME280;5547;42.672;23.230;2023-06-22T05:58:19;93849.72;;;21.00;100.00
10988;BME280;5547;42.672;23.230;2023-06-22T06:01:19;93829.91;;;20.51;100.00
10988;BME280;5547;42.672;23.230;2023-06-22T06:04:20;93848.31;;;21.14;100.00
10988;BME280;5547;42.672;23.230;2023-06-22T06:07:21;93809.03;;;20.70;100.00
10988;BME280;5547;42.672;23.230;2023-06-22T06:10:22;93829.44;;;21.77;100.00
10988;BME280;5547;42.672;23.230;2023-06-22T06:13:22;93863.34;;;21.87;100.00
10988;BME280;5547;42.672;23.230;2023-06-22T06:16:23;93820.78;;;21.39;100.00
10988;BME280;5547;42.672;23.230;2023-06-22T06:19:23;93732.19;;;21.10;100.00
10988;BME280;5547;42.672;23.230;2023-06-22T06:22:24;93817.75;;;21.71;100.00
10988;BME280;5547;42.672;23.230;2023-06-22T06:25:25;93854.09;;;22.62;100.00
10988;BME280;5547;42.672;23.230;2023-06-22T06:28:26;93859.03;;;22.49;100.00
10988;BME280;5547;42.672;23.230;2023-06-22T06:31:26;93830.34;;;23.07;100.00
10988;BME280;5547;42.672;23.230;2023-06-22T06:34:30;93851.59;;;22.94;100.00
10988;BME280;5547;42.672;23.230;2023-06-22T06:37:30;93760.00;;;22.69;100.00
10988;BME280;5547;42.672;23.230;2023-06-22T06:40:31;93818.69;;;23.22;100.00
10988;BME280;5547;42.672;23.230;2023-06-22T06:43:31;93852.91;;;23.96;100.00
10988;BME280;5547;42.672;23.230;2023-06-22T06:46:32;93860.59;;;24.76;100.00
10988;BME280;5547;42.672;23.230;2023-06-22T06:49:33;93804.16;;;25.08;100.00
10988;BME280;5547;42.672;23.230;2023-06-22T06:52:34;93822.50;;;24.44;100.00
10988;BME280;5547;42.672;23.230;2023-06-22T06:55:34;93838.94;;;24.55;100.00
10988;BME280;5547;42.672;23.230;2023-06-22T06:58:35;93849.09;;;25.29;100.00
10988;BME280;5547;42.672;23.230;2023-06-22T07:01:35;93817.00;;;24.64;100.00
10988;BME280;5547;42.672;23.230;2023-06-22T07:04:36;93836.28;;;25.41;100.00
10988;BME280;5547;42.672;23.230;2023-06-22T07:07:36;93733.41;;;24.27;100.00
10988;BME280;5547;42.672;23.230;2023-06-22T07:10:37;93818.47;;;24.33;100.00
10988;BME280;5547;42.672;23.230;2023-06-22T07:13:37;93847.13;;;24.35;100.00
10988;BME280;5547;42.672;23.230;2023-06-22T07:16:38;93854.63;;;25.03;100.00
10988;BME280;5547;42.672;23.230;2023-06-22T07:19:39;93847.94;;;25.04;100.00
10988;BME280;5547;42.672;23.230;2023-06-22T07:22:42;93855.97;;;24.56;100.00
10988;BME280;5547;42.672;23.230;2023-06-22T07:25:42;93797.06;;;24.47;100.00
10988;BME280;5547;42.672;23.230;2023-06-22T07:28:43;93853.63;;;24.69;100.00
10988;BME280;5547;42.672;23.230;2023-06-22T07:31:44;93859.34;;;25.08;100.00
10988;BME280;5547;42.672;23.230;2023-06-22T07:34:45;93831.25;;;24.27;100.00
10988;BME280;5547;42.672;23.230;2023-06-22T07:37:45;93854.53;;;24.60;100.00
10988;BME280;5547;42.672;23.230;2023-06-22T07:40:45;93820.97;;;24.69;100.00
10988;BME280;5547;42.672;23.230;2023-06-22T07:43:46;93864.13;;;24.82;100.00
10988;BME280;5547;42.672;23.230;2023-06-22T07:46:46;93849.38;;;24.62;100.00
10988;BME280;5547;42.672;23.230;2023-06-22T07:49:47;93870.88;;;25.78;100.00
10988;BME280;5547;42.672;23.230;2023-06-22T07:52:47;93865.44;;;25.29;100.00
10988;BME280;5547;42.672;23.230;2023-06-22T07:55:48;93856.06;;;25.30;100.00
10988;BME280;5547;42.672;23.230;2023-06-22T07:58:49;93859.56;;;25.42;100.00
10988;BME280;5547;42.672;23.230;2023-06-22T08:01:49;93864.34;;;25.15;100.00
10988;BME280;5547;42.672;23.230;2023-06-22T08:04:50;93810.75;;;24.58;100.00
10988;BME280;5547;42.672;23.230;2023-06-22T08:07:50;93845.63;;;24.91;100.00
10988;BME280;5547;42.672;23.230;2023-06-22T08:10:50;93847.44;;;25.06;100.00
10988;BME280;5547;42.672;23.230;2023-06-22T08:13:51;93821.13;;;24.54;100.00
10988;BME280;5547;42.672;23.230;2023-06-22T08:16:52;93835.50;;;24.34;100.00
10988;BME280;5547;42.672;23.230;2023-06-22T08:19:52;93837.97;;;24.32;100.00
10988;BME280;5547;42.672;23.230;2023-06-22T08:22:54;93844.38;;;24.92;100.00
10988;BME280;5547;42.672;23.230;2023-06-22T08:25:54;93847.44;;;25.00;100.00
10988;BME280;5547;42.672;23.230;2023-06-22T08:28:55;93816.59;;;25.14;100.00
10988;BME280;5547;42.672;23.230;2023-06-22T08:31:55;93836.78;;;25.02;100.00
10988;BME280;5547;42.672;23.230;2023-06-22T08:34:56;93834.66;;;25.17;100.00
10988;BME280;5547;42.672;23.230;2023-06-22T08:37:57;93811.25;;;25.37;100.00
10988;BME280;5547;42.672;23.230;2023-06-22T08:40:58;93837.38;;;25.61;100.00
10988;BME280;5547;42.672;23.230;2023-06-22T08:43:58;93845.22;;;26.07;100.00
10988;BME280;5547;42.672;23.230;2023-06-22T08:46:59;93762.31;;;25.54;100.00
10988;BME280;5547;42.672;23.230;2023-06-22T08:49:59;93835.47;;;25.24;100.00
10988;BME280;5547;42.672;23.230;2023-06-22T08:53:02;93812.28;;;25.02;100.00
10988;BME280;5547;42.672;23.230;2023-06-22T08:56:03;93811.09;;;25.09;100.00
10988;BME280;5547;42.672;23.230;2023-06-22T08:59:03;93784.38;;;25.07;100.00
10988;BME280;5547;42.672;23.230;2023-06-22T09:02:04;93810.31;;;25.40;99.07
10988;BME280;5547;42.672;23.230;2023-06-22T09:05:05;93815.59;;;25.66;69.30
10988;BME280;5547;42.672;23.230;2023-06-22T09:08:05;93823.88;;;25.94;64.42
10988;BME280;5547;42.672;23.230;2023-06-22T09:11:06;93821.53;;;25.65;69.58
10988;BME280;5547;42.672;23.230;2023-06-22T09:14:06;93822.28;;;25.71;79.18
10988;BME280;5547;42.672;23.230;2023-06-22T09:17:07;93822.28;;;25.71;69.39
10988;BME280;5547;42.672;23.230;2023-06-22T09:20:08;93833.84;;;26.31;64.40
10988;BME280;5547;42.672;23.230;2023-06-22T09:23:10;93825.16;;;26.27;70.61
10988;BME280;5547;42.672;23.230;2023-06-22T09:26:11;93830.59;;;26.10;64.40
10988;BME280;5547;42.672;23.230;2023-06-22T09:29:11;93828.38;;;26.20;59.40
10988;BME280;5547;42.672;23.230;2023-06-22T09:32:12;93841.75;;;26.12;65.49
10988;BME280;5547;42.672;23.230;2023-06-22T09:35:12;93831.59;;;26.13;71.00
10988;BME280;5547;42.672;23.230;2023-06-22T09:38:13;93793.94;;;26.11;61.09
10988;BME280;5547;42.672;23.230;2023-06-22T09:41:14;93836.94;;;25.85;66.43
10988;BME280;5547;42.672;23.230;2023-06-22T09:44:14;93830.63;;;26.16;65.53
10988;BME280;5547;42.672;23.230;2023-06-22T09:47:14;93824.91;;;26.19;66.52
10988;BME280;5547;42.672;23.230;2023-06-22T09:50:15;93790.72;;;26.18;67.40
10988;BME280;5547;42.672;23.230;2023-06-22T09:53:16;93800.16;;;26.29;68.93
10988;BME280;5547;42.672;23.230;2023-06-22T09:56:16;93803.38;;;26.44;72.08
10988;BME280;5547;42.672;23.230;2023-06-22T09:59:17;93814.81;;;26.59;70.62
10988;BME280;5547;42.672;23.230;2023-06-22T10:02:17;93824.69;;;27.08;68.29
10988;BME280;5547;42.672;23.230;2023-06-22T10:05:18;93820.97;;;26.26;70.27
10988;BME280;5547;42.672;23.230;2023-06-22T10:08:18;93811.59;;;26.61;67.38
10988;BME280;5547;42.672;23.230;2023-06-22T10:11:18;93779.34;;;26.76;65.35
10988;BME280;5547;42.672;23.230;2023-06-22T10:14:19;93798.19;;;26.46;68.26
10988;BME280;5547;42.672;23.230;2023-06-22T10:17:19;93819.50;;;27.04;66.23
10988;BME280;5547;42.672;23.230;2023-06-22T10:20:20;93804.56;;;27.28;63.50
10988;BME280;5547;42.672;23.230;2023-06-22T10:23:22;93807.13;;;26.69;68.49
10988;BME280;5547;42.672;23.230;2023-06-22T10:26:22;93811.31;;;26.81;66.07
10988;BME280;5547;42.672;23.230;2023-06-22T10:29:23;93812.78;;;27.05;65.46
10988;BME280;5547;42.672;23.230;2023-06-22T10:32:26;93820.22;;;27.21;60.45
10988;BME280;5547;42.672;23.230;2023-06-22T10:35:32;93795.38;;;27.19;56.50
10988;BME280;5547;42.672;23.230;2023-06-22T10:38:38;93730.97;;;26.71;57.22
10988;BME280;5547;42.672;23.230;2023-06-22T10:41:49;93605.13;;;25.77;61.29
10988;BME280;5547;42.672;23.230;2023-06-22T10:44:50;93780.69;;;27.39;57.97
10988;BME280;5547;42.672;23.230;2023-06-22T10:47:52;93668.66;;;26.92;55.89
10988;BME280;5547;42.672;23.230;2023-06-22T10:50:54;93665.97;;;26.75;58.08
10988;BME280;5547;42.672;23.230;2023-06-22T10:53:55;93807.97;;;27.45;59.39
10988;BME280;5547;42.672;23.230;2023-06-22T10:56:55;93743.56;;;26.91;57.67
10988;BME280;5547;42.672;23.230;2023-06-22T10:59:58;93805.81;;;27.10;60.00
10988;BME280;5547;42.672;23.230;2023-06-22T11:03:00;93784.97;;;27.18;61.12
10988;BME280;5547;42.672;23.230;2023-06-22T11:06:01;93794.72;;;26.74;57.67
10988;BME280;5547;42.672;23.230;2023-06-22T11:09:04;93694.72;;;26.88;54.54
10988;BME280;5547;42.672;23.230;2023-06-22T11:12:11;93790.69;;;27.84;56.03
10988;BME280;5547;42.672;23.230;2023-06-22T11:15:12;93782.34;;;28.06;59.89
10988;BME280;5547;42.672;23.230;2023-06-22T11:18:12;93746.19;;;27.89;49.84
10988;BME280;5547;42.672;23.230;2023-06-22T11:21:12;93681.94;;;27.65;48.58
10988;BME280;5547;42.672;23.230;2023-06-22T11:24:13;93778.75;;;28.23;51.02
10988;BME280;5547;42.672;23.230;2023-06-22T11:27:13;93685.16;;;27.70;48.37
10988;BME280;5547;42.672;23.230;2023-06-22T11:30:14;93773.06;;;28.57;52.21
10988;BME280;5547;42.672;23.230;2023-06-22T11:33:14;93744.38;;;28.03;50.68
10988;BME280;5547;42.672;23.230;2023-06-22T11:36:15;93776.84;;;28.78;49.08
10988;BME280;5547;42.672;23.230;2023-06-22T11:39:16;93752.75;;;28.11;48.12
10988;BME280;5547;42.672;23.230;2023-06-22T11:42:16;93776.72;;;28.65;45.69
10988;BME280;5547;42.672;23.230;2023-06-22T11:45:16;93759.47;;;28.40;51.26
10988;BME280;5547;42.672;23.230;2023-06-22T11:48:18;93778.28;;;28.85;46.58
10988;BME280;5547;42.672;23.230;2023-06-22T11:51:18;93755.19;;;27.73;52.36
10988;BME280;5547;42.672;23.230;2023-06-22T11:54:19;93760.25;;;27.57;57.29
10988;BME280;5547;42.672;23.230;2023-06-22T11:57:19;93733.91;;;27.54;57.19
10988;BME280;5547;42.672;23.230;2023-06-22T12:00:19;93774.25;;;27.31;56.27
10988;BME280;5547;42.672;23.230;2023-06-22T12:03:21;93773.75;;;27.33;53.72
10988;BME280;5547;42.672;23.230;2023-06-22T12:06:21;93765.69;;;26.42;59.89
10988;BME280;5547;42.672;23.230;2023-06-22T12:09:22;93723.31;;;26.30;62.72
10988;BME280;5547;42.672;23.230;2023-06-22T12:12:22;93775.47;;;25.61;88.32
10988;BME280;5547;42.672;23.230;2023-06-22T12:15:23;93686.53;;;23.28;100.00
10988;BME280;5547;42.672;23.230;2023-06-22T12:18:23;93769.13;;;22.86;100.00
10988;BME280;5547;42.672;23.230;2023-06-22T12:21:24;93565.81;;;21.15;100.00
10988;BME280;5547;42.672;23.230;2023-06-22T12:24:25;93617.59;;;21.08;100.00
10988;BME280;5547;42.672;23.230;2023-06-22T12:27:25;93568.59;;;20.76;100.00
10988;BME280;5547;42.672;23.230;2023-06-22T12:30:26;93705.97;;;20.77;100.00
10988;BME280;5547;42.672;23.230;2023-06-22T12:33:27;93749.25;;;19.56;100.00
10988;BME280;5547;42.672;23.230;2023-06-22T12:36:27;93581.94;;;17.09;100.00
10988;BME280;5547;42.672;23.230;2023-06-22T12:39:28;93769.53;;;18.02;100.00
10988;BME280;5547;42.672;23.230;2023-06-22T12:42:29;93707.50;;;17.52;100.00
10988;BME280;5547;42.672;23.230;2023-06-22T12:45:29;93729.00;;;17.96;100.00
10988;BME280;5547;42.672;23.230;2023-06-22T12:48:34;93655.50;;;17.77;100.00
10988;BME280;5547;42.672;23.230;2023-06-22T12:51:39;93596.31;;;17.46;100.00
10988;BME280;5547;42.672;23.230;2023-06-22T12:54:40;93665.16;;;17.97;100.00
10988;BME280;5547;42.672;23.230;2023-06-22T12:57:41;93453.59;;;16.59;100.00
10988;BME280;5547;42.672;23.230;2023-06-22T13:00:41;93549.66;;;17.31;100.00
10988;BME280;5547;42.672;23.230;2023-06-22T13:03:42;93722.13;;;18.85;100.00
10988;BME280;5547;42.672;23.230;2023-06-22T13:06:42;93665.94;;;18.65;100.00
10988;BME280;5547;42.672;23.230;2023-06-22T13:09:43;93601.28;;;18.47;100.00
10988;BME280;5547;42.672;23.230;2023-06-22T13:12:46;93671.50;;;19.17;100.00
10988;BME280;5547;42.672;23.230;2023-06-22T13:15:47;93741.63;;;19.72;100.00
10988;BME280;5547;42.672;23.230;2023-06-22T13:18:47;93692.47;;;19.31;100.00
10988;BME280;5547;42.672;23.230;2023-06-22T13:21:48;93720.34;;;19.47;100.00
10988;BME280;5547;42.672;23.230;2023-06-22T13:24:48;93688.16;;;18.88;100.00
10988;BME280;5547;42.672;23.230;2023-06-22T13:27:49;93723.94;;;19.25;100.00
10988;BME280;5547;42.672;23.230;2023-06-22T13:30:50;93732.91;;;19.31;100.00
10988;BME280;5547;42.672;23.230;2023-06-22T13:33:50;93644.69;;;18.58;100.00
10988;BME280;5547;42.672;23.230;2023-06-22T13:36:52;93688.28;;;18.84;100.00
10988;BME280;5547;42.672;23.230;2023-06-22T13:39:53;93781.03;;;19.42;100.00
10988;BME280;5547;42.672;23.230;2023-06-22T13:42:56;93757.50;;;19.34;100.00
10988;BME280;5547;42.672;23.230;2023-06-22T13:45:57;93697.28;;;18.81;100.00
10988;BME280;5547;42.672;23.230;2023-06-22T13:48:58;93700.28;;;18.83;100.00
10988;BME280;5547;42.672;23.230;2023-06-22T13:51:59;93754.47;;;19.59;100.00
10988;BME280;5547;42.672;23.230;2023-06-22T13:55:00;93589.28;;;18.39;100.00
10988;BME280;5547;42.672;23.230;2023-06-22T13:58:00;93568.72;;;17.95;100.00
10988;BME280;5547;42.672;23.230;2023-06-22T14:01:01;93664.84;;;18.35;100.00
10988;BME280;5547;42.672;23.230;2023-06-22T14:04:02;93561.97;;;17.81;100.00
10988;BME280;5547;42.672;23.230;2023-06-22T14:07:03;93685.41;;;18.60;100.00
10988;BME280;5547;42.672;23.230;2023-06-22T14:10:11;93758.09;;;19.10;100.00
10988;BME280;5547;42.672;23.230;2023-06-22T14:13:12;93765.41;;;19.00;100.00
10988;BME280;5547;42.672;23.230;2023-06-22T14:16:14;93666.00;;;18.34;100.00
10988;BME280;5547;42.672;23.230;2023-06-22T14:19:19;93718.31;;;18.64;100.00
10988;BME280;5547;42.672;23.230;2023-06-22T14:22:21;93705.25;;;18.44;100.00
10988;BME280;5547;42.672;23.230;2023-06-22T14:25:22;93759.69;;;18.80;100.00
10988;BME280;5547;42.672;23.230;2023-06-22T14:28:23;93763.63;;;18.97;100.00
10988;BME280;5547;42.672;23.230;2023-06-22T14:31:28;93718.47;;;18.61;100.00
10988;BME280;5547;42.672;23.230;2023-06-22T14:34:34;93597.25;;;17.93;100.00
10988;BME280;5547;42.672;23.230;2023-06-22T14:43:58;93769.19;;;19.77;100.00
10988;BME280;5547;42.672;23.230;2023-06-22T14:46:58;93765.56;;;19.89;100.00
10988;BME280;5547;42.672;23.230;2023-06-22T14:49:59;93779.63;;;20.11;100.00
10988;BME280;5547;42.672;23.230;2023-06-22T14:53:00;93789.41;;;20.51;100.00
10988;BME280;5547;42.672;23.230;2023-06-22T14:56:01;93786.25;;;20.86;100.00
10988;BME280;5547;42.672;23.230;2023-06-22T14:59:04;93766.09;;;20.96;100.00
10988;BME280;5547;42.672;23.230;2023-06-22T15:02:04;93765.78;;;20.94;100.00
10988;BME280;5547;42.672;23.230;2023-06-22T15:05:05;93657.56;;;20.31;100.00
10988;BME280;5547;42.672;23.230;2023-06-22T15:08:06;93748.66;;;20.97;100.00
10988;BME280;5547;42.672;23.230;2023-06-22T15:11:06;93751.50;;;21.18;100.00
10988;BME280;5547;42.672;23.230;2023-06-22T15:14:07;93743.59;;;20.90;100.00
10988;BME280;5547;42.672;23.230;2023-06-22T15:17:08;93737.75;;;21.07;100.00
10988;BME280;5547;42.672;23.230;2023-06-22T15:20:14;93733.22;;;21.13;100.00
10988;BME280;5547;42.672;23.230;2023-06-22T15:23:15;93725.13;;;21.28;100.00
10988;BME280;5547;42.672;23.230;2023-06-22T15:26:15;93682.63;;;21.28;100.00
10988;BME280;5547;42.672;23.230;2023-06-22T15:29:15;93727.28;;;21.92;100.00
10988;BME280;5547;42.672;23.230;2023-06-22T15:32:16;93743.34;;;22.40;100.00
10988;BME280;5547;42.672;23.230;2023-06-22T15:35:16;93751.13;;;22.68;100.00
10988;BME280;5547;42.672;23.230;2023-06-22T15:38:18;93753.25;;;23.14;100.00
10988;BME280;5547;42.672;23.230;2023-06-22T15:41:19;93748.50;;;22.94;100.00
10988;BME280;5547;42.672;23.230;2023-06-22T15:44:20;93719.72;;;22.97;100.00
10988;BME280;5547;42.672;23.230;2023-06-22T15:47:21;93758.72;;;23.40;100.00
10988;BME280;5547;42.672;23.230;2023-06-22T15:50:22;93764.41;;;23.22;100.00
10988;BME280;5547;42.672;23.230;2023-06-22T15:53:22;93748.69;;;23.05;100.00
10988;BME280;5547;42.672;23.230;2023-06-22T15:56:23;93769.19;;;23.06;100.00
10988;BME280;5547;42.672;23.230;2023-06-22T15:59:25;93758.66;;;22.43;100.00
10988;BME280;5547;42.672;23.230;2023-06-22T16:02:25;93760.25;;;21.76;100.00